createdAt,value
2019-03-29T00:00:34.784Z,0.28
2019-03-29T00:03:03.917Z,0.62
2019-03-29T00:05:33.118Z,0.33
2019-03-29T00:08:01.943Z,0.80
2019-03-29T00:10:31.102Z,0.30
2019-03-29T00:13:00.314Z,0.30
2019-03-29T00:15:29.091Z,0.42
2019-03-29T00:17:58.184Z,0.30
2019-03-29T00:20:27.496Z,0.30
2019-03-29T00:22:57.029Z,0.40
2019-03-29T00:25:25.916Z,0.62
2019-03-29T00:27:54.628Z,0.50
2019-03-29T00:30:23.682Z,0.65
2019-03-29T00:32:52.436Z,0.20
2019-03-29T00:35:21.556Z,0.40
2019-03-29T00:37:53.694Z,0.33
2019-03-29T00:40:21.122Z,0.55
2019-03-29T00:42:49.863Z,0.37
2019-03-29T00:45:19.109Z,0.30
2019-03-29T00:47:48.627Z,0.75
2019-03-29T00:50:17.673Z,0.35
2019-03-29T00:52:46.379Z,0.40
2019-03-29T00:55:15.206Z,0.50
2019-03-29T00:57:44.244Z,0.23
2019-03-29T01:00:13.446Z,0.33
2019-03-29T01:02:42.641Z,0.20
2019-03-29T01:05:11.425Z,1.15
2019-03-29T01:07:40.623Z,0.30
2019-03-29T01:10:09.622Z,0.40
2019-03-29T01:12:38.417Z,0.55
2019-03-29T01:15:09.388Z,0.25
2019-03-29T01:17:38.759Z,0.40
2019-03-29T01:20:07.958Z,0.25
2019-03-29T01:22:36.958Z,0.40
2019-03-29T01:25:08.245Z,0.50
2019-03-29T01:27:37.464Z,0.25
2019-03-29T01:30:07.586Z,0.10
2019-03-29T01:32:36.516Z,0.30
2019-03-29T01:35:09.080Z,0.50
2019-03-29T01:37:38.687Z,0.40
2019-03-29T01:40:09.150Z,0.42
2019-03-29T01:42:38.733Z,0.37
2019-03-29T01:45:09.112Z,0.20
2019-03-29T01:47:37.890Z,0.30
2019-03-29T01:50:08.168Z,0.40
2019-03-29T01:52:37.406Z,0.23
2019-03-29T01:55:07.130Z,0.57
2019-03-29T01:57:36.285Z,0.47
2019-03-29T02:00:06.908Z,0.40
2019-03-29T02:02:36.010Z,0.47
2019-03-29T02:05:07.363Z,0.30
2019-03-29T02:07:37.344Z,0.50
2019-03-29T02:10:09.962Z,0.33
2019-03-29T02:12:38.745Z,0.17
2019-03-29T02:15:08.468Z,0.40
2019-03-29T02:17:37.957Z,0.60
2019-03-29T02:20:08.695Z,0.25
2019-03-29T02:22:37.686Z,0.40
2019-03-29T02:25:08.315Z,0.23
2019-03-29T02:27:37.925Z,0.35
2019-03-29T02:30:10.187Z,0.47
2019-03-29T02:32:39.600Z,0.40
2019-03-29T02:35:11.452Z,0.55
2019-03-29T02:37:40.367Z,0.70
2019-03-29T02:40:09.966Z,0.65
2019-03-29T02:42:38.739Z,0.55
2019-03-29T02:45:07.693Z,0.80
2019-03-29T02:47:36.847Z,0.30
2019-03-29T02:50:08.626Z,0.60
2019-03-29T02:52:38.110Z,0.42
2019-03-29T02:55:07.965Z,0.40
2019-03-29T02:57:36.922Z,0.37
2019-03-29T03:00:08.444Z,0.60
2019-03-29T03:02:37.573Z,0.88
2019-03-29T03:05:06.976Z,0.40
2019-03-29T03:07:35.806Z,0.40
2019-03-29T03:10:08.249Z,0.50
2019-03-29T03:12:37.036Z,0.80
2019-03-29T03:15:08.688Z,0.42
2019-03-29T03:17:38.911Z,0.60
2019-03-29T03:20:14.634Z,0.75
2019-03-29T03:22:41.707Z,0.50
2019-03-29T03:25:11.141Z,0.40
2019-03-29T03:27:39.857Z,0.53
2019-03-29T03:30:10.638Z,0.42
2019-03-29T03:32:39.305Z,0.70
2019-03-29T03:35:10.977Z,0.57
2019-03-29T03:37:39.689Z,0.40
2019-03-29T03:40:09.585Z,0.45
2019-03-29T03:42:38.784Z,0.40
2019-03-29T03:45:09.707Z,0.50
2019-03-29T03:47:39.511Z,0.82
2019-03-29T03:50:10.252Z,0.60
2019-03-29T03:52:39.032Z,0.70
2019-03-29T03:55:08.158Z,0.50
2019-03-29T03:57:38.703Z,0.85
2019-03-29T04:00:09.216Z,0.88
2019-03-29T04:02:38.312Z,0.78
2019-03-29T04:05:07.412Z,0.60
2019-03-29T04:07:36.127Z,0.60
2019-03-29T04:10:07.311Z,0.53
2019-03-29T04:12:36.047Z,0.45
2019-03-29T04:15:05.596Z,0.57
2019-03-29T04:17:34.623Z,0.30
2019-03-29T04:20:03.886Z,0.85
2019-03-29T04:22:32.696Z,0.40
2019-03-29T04:25:01.821Z,0.60
2019-03-29T04:27:30.911Z,0.60
2019-03-29T04:30:00.004Z,0.30
2019-03-29T04:32:29.116Z,0.50
2019-03-29T04:34:57.842Z,0.72
2019-03-29T04:37:26.997Z,0.40
2019-03-29T04:40:07.815Z,0.75
2019-03-29T04:42:27.129Z,0.88
2019-03-29T04:44:59.387Z,0.60
2019-03-29T04:47:26.259Z,0.60
2019-03-29T04:49:55.338Z,0.68
2019-03-29T04:52:24.640Z,0.80
2019-03-29T04:54:53.843Z,0.60
2019-03-29T04:57:22.927Z,0.72
2019-03-29T04:59:51.712Z,0.60
2019-03-29T05:02:20.821Z,0.60
2019-03-29T05:04:49.910Z,1.07
2019-03-29T05:07:18.686Z,0.60
2019-03-29T05:09:47.812Z,0.33
2019-03-29T05:12:16.895Z,0.47
2019-03-29T05:14:45.998Z,0.70
2019-03-29T05:17:14.718Z,1.60
2019-03-29T05:19:44.688Z,1.30
2019-03-29T05:22:14.403Z,0.98
2019-03-29T05:24:43.511Z,0.85
2019-03-29T05:27:12.600Z,0.88
2019-03-29T05:29:41.307Z,0.70
2019-03-29T05:32:10.493Z,1.20
2019-03-29T05:34:39.311Z,0.68
2019-03-29T05:37:08.069Z,1.10
2019-03-29T05:39:36.996Z,0.85
2019-03-29T05:42:05.699Z,1.00
2019-03-29T05:44:34.845Z,1.50
2019-03-29T05:47:03.565Z,1.12
2019-03-29T05:49:32.723Z,1.22
2019-03-29T05:52:01.935Z,0.93
2019-03-29T05:54:31.031Z,1.40
2019-03-29T05:57:00.118Z,2.08
2019-03-29T05:59:28.861Z,1.40
2019-03-29T06:01:57.694Z,1.67
2019-03-29T06:04:26.794Z,1.85
2019-03-29T06:06:55.915Z,1.60
2019-03-29T06:09:24.760Z,1.57
2019-03-29T06:11:53.507Z,1.77
2019-03-29T06:14:22.576Z,1.02
2019-03-29T06:16:51.667Z,2.30
2019-03-29T06:19:20.497Z,1.77
2019-03-29T06:21:49.280Z,1.52
2019-03-29T06:24:18.064Z,1.47
2019-03-29T06:26:46.885Z,1.47
2019-03-29T06:29:15.662Z,1.15
2019-03-29T06:31:44.433Z,1.02
2019-03-29T06:34:13.597Z,2.05
2019-03-29T06:36:43.519Z,1.82
2019-03-29T06:39:12.813Z,1.80
2019-03-29T06:41:42.010Z,1.00
2019-03-29T06:44:10.802Z,1.37
2019-03-29T06:46:39.907Z,1.55
2019-03-29T06:49:09.105Z,1.30
2019-03-29T06:51:38.217Z,1.45
2019-03-29T06:54:06.974Z,1.50
2019-03-29T06:56:36.201Z,1.67
2019-03-29T06:59:04.982Z,1.50
2019-03-29T07:01:33.773Z,0.90
2019-03-29T07:04:02.971Z,1.47
2019-03-29T07:06:31.763Z,1.27
2019-03-29T07:09:00.854Z,1.72
2019-03-29T07:11:29.557Z,2.37
2019-03-29T07:13:58.744Z,2.37
2019-03-29T07:16:27.501Z,1.37
2019-03-29T07:18:56.512Z,1.80
2019-03-29T07:21:25.626Z,1.62
2019-03-29T07:23:54.842Z,1.92
2019-03-29T07:26:23.652Z,1.65
2019-03-29T07:28:52.360Z,1.82
2019-03-29T07:31:21.147Z,1.92
2019-03-29T07:33:49.978Z,1.40
2019-03-29T07:36:18.758Z,1.98
2019-03-29T07:38:47.862Z,1.55
2019-03-29T07:41:30.757Z,1.22
2019-03-29T07:43:47.382Z,1.30
2019-03-29T07:46:16.482Z,1.00
2019-03-29T07:48:45.390Z,1.40
2019-03-29T07:51:14.587Z,1.20
2019-03-29T07:53:44.943Z,0.85
2019-03-29T07:56:13.708Z,0.82
2019-03-29T07:58:42.894Z,0.90
2019-03-29T08:01:11.982Z,1.30
2019-03-29T08:03:41.082Z,0.80
2019-03-29T08:06:10.199Z,0.60
2019-03-29T08:08:39.273Z,0.45
2019-03-29T08:11:08.101Z,1.05
2019-03-29T08:13:36.896Z,0.60
2019-03-29T08:16:06.735Z,0.60
2019-03-29T08:18:35.556Z,0.50
2019-03-29T08:21:04.699Z,0.70
2019-03-29T08:23:33.406Z,0.55
2019-03-29T08:26:03.127Z,0.78
2019-03-29T08:28:31.838Z,0.60
2019-03-29T08:31:13.741Z,0.57
2019-03-29T08:33:42.884Z,0.80
2019-03-29T08:38:52.217Z,0.72
2019-03-29T08:41:21.386Z,0.55
2019-03-29T08:43:50.493Z,0.62
2019-03-29T08:46:19.683Z,0.80
2019-03-29T08:48:48.894Z,0.70
2019-03-29T08:51:17.972Z,1.12
2019-03-29T08:53:46.796Z,0.88
2019-03-29T08:56:15.588Z,0.45
2019-03-29T08:58:46.464Z,0.88
2019-03-29T09:01:15.078Z,0.47
2019-03-29T09:03:43.900Z,0.55
2019-03-29T09:06:12.769Z,1.35
2019-03-29T09:08:42.371Z,0.42
2019-03-29T09:11:11.200Z,1.32
2019-03-29T09:13:39.988Z,0.68
2019-03-29T09:16:09.043Z,0.70
2019-03-29T09:18:38.170Z,0.50
2019-03-29T09:21:07.237Z,1.07
2019-03-29T09:23:36.339Z,0.70
2019-03-29T09:26:05.166Z,0.65
2019-03-29T09:28:33.884Z,1.22
2019-03-29T09:31:03.021Z,0.70
2019-03-29T09:33:31.808Z,0.68
2019-03-29T09:36:00.896Z,0.60
2019-03-29T09:38:29.655Z,0.95
2019-03-29T09:40:59.289Z,0.72
2019-03-29T09:43:28.208Z,0.37
2019-03-29T09:45:57.275Z,0.50
2019-03-29T09:48:26.003Z,0.53
2019-03-29T09:50:55.065Z,0.90
2019-03-29T09:53:23.896Z,0.70
2019-03-29T09:55:53.508Z,0.50
2019-03-29T09:58:22.574Z,1.57
2019-03-29T10:00:51.393Z,0.72
2019-03-29T10:03:20.440Z,1.30
2019-03-29T10:05:49.535Z,0.35
2019-03-29T10:08:18.250Z,0.98
2019-03-29T10:10:47.083Z,0.40
2019-03-29T10:13:16.211Z,0.68
2019-03-29T10:15:45.407Z,0.57
2019-03-29T10:18:14.223Z,1.15
2019-03-29T10:20:43.313Z,0.70
2019-03-29T10:23:12.097Z,0.70
2019-03-29T10:25:40.845Z,0.88
2019-03-29T10:28:09.871Z,0.68
2019-03-29T10:30:40.821Z,0.60
2019-03-29T10:33:09.712Z,0.85
2019-03-29T10:35:50.875Z,0.98
2019-03-29T10:38:09.269Z,0.70
2019-03-29T10:40:38.333Z,0.68
2019-03-29T10:43:07.425Z,0.85
2019-03-29T10:45:40.084Z,0.75
2019-03-29T10:48:06.920Z,1.25
2019-03-29T10:50:36.045Z,1.07
2019-03-29T10:53:04.797Z,0.80
2019-03-29T10:55:34.028Z,0.70
2019-03-29T10:58:02.968Z,0.60
2019-03-29T11:00:34.155Z,0.62
2019-03-29T11:03:03.474Z,0.50
2019-03-29T11:05:32.263Z,0.60
2019-03-29T11:08:01.083Z,0.95
2019-03-29T11:10:37.623Z,1.22
2019-03-29T11:13:13.210Z,1.00
2019-03-29T11:15:38.066Z,0.78
2019-03-29T11:18:07.373Z,1.00
2019-03-29T11:20:36.144Z,0.62
2019-03-29T11:23:05.566Z,1.07
2019-03-29T11:25:34.392Z,0.70
2019-03-29T11:28:03.552Z,0.82
2019-03-29T11:30:41.966Z,0.80
2019-03-29T11:33:03.182Z,0.68
2019-03-29T11:35:32.383Z,0.50
2019-03-29T11:38:01.096Z,0.40
2019-03-29T11:40:30.167Z,0.53
2019-03-29T11:42:58.879Z,0.55
2019-03-29T11:45:28.150Z,0.40
2019-03-29T11:48:08.561Z,0.30
2019-03-29T11:50:29.302Z,0.95
2019-03-29T11:52:58.510Z,0.33
2019-03-29T11:55:27.603Z,0.30
2019-03-29T11:57:56.325Z,0.45
2019-03-29T12:00:28.470Z,0.62
2019-03-29T12:02:57.569Z,0.62
2019-03-29T12:05:26.651Z,0.53
2019-03-29T12:07:55.851Z,0.80
2019-03-29T12:10:24.955Z,0.82
2019-03-29T12:12:53.792Z,0.82
2019-03-29T12:15:23.045Z,1.00
2019-03-29T12:17:51.827Z,0.40
2019-03-29T12:20:21.033Z,0.30
2019-03-29T12:22:50.134Z,0.60
2019-03-29T12:25:19.318Z,0.20
2019-03-29T12:27:48.291Z,0.60
2019-03-29T12:30:31.297Z,0.88
2019-03-29T12:32:48.020Z,0.57
2019-03-29T12:35:17.145Z,0.47
2019-03-29T12:37:46.446Z,0.20
2019-03-29T12:40:15.339Z,0.25
2019-03-29T12:42:44.440Z,0.40
2019-03-29T12:45:13.633Z,0.30
2019-03-29T12:47:42.838Z,0.53
2019-03-29T12:50:11.837Z,0.30
2019-03-29T12:52:40.635Z,0.50
2019-03-29T12:55:09.556Z,0.80
2019-03-29T12:57:39.381Z,0.20
2019-03-29T13:00:09.508Z,0.47
2019-03-29T13:02:38.547Z,0.40
2019-03-29T13:05:08.049Z,0.70
2019-03-29T13:07:36.826Z,0.65
2019-03-29T13:10:25.393Z,1.47
2019-03-29T13:12:54.169Z,0.62
2019-03-29T13:15:23.291Z,0.45
2019-03-29T13:17:52.476Z,0.50
2019-03-29T13:20:21.730Z,0.60
2019-03-29T13:22:50.502Z,0.10
2019-03-29T13:25:19.675Z,0.65
2019-03-29T13:27:48.396Z,0.62
2019-03-29T13:30:17.859Z,0.40
2019-03-29T13:32:46.972Z,0.47
2019-03-29T13:35:16.248Z,0.82
2019-03-29T13:37:45.078Z,0.37
2019-03-29T13:40:13.989Z,0.40
2019-03-29T13:42:42.733Z,0.45
2019-03-29T13:45:11.960Z,0.30
2019-03-29T13:47:40.674Z,0.70
2019-03-29T13:50:11.221Z,1.02
2019-03-29T13:52:40.356Z,0.82
2019-03-29T13:55:09.563Z,0.85
2019-03-29T13:57:38.358Z,0.30
2019-03-29T14:00:12.757Z,0.50
2019-03-29T14:02:41.850Z,0.47
2019-03-29T14:05:10.731Z,0.65
2019-03-29T14:07:39.827Z,0.40
2019-03-29T14:10:09.246Z,0.45
2019-03-29T14:12:39.936Z,0.47
2019-03-29T14:15:10.709Z,0.30
2019-03-29T14:17:39.802Z,0.50
2019-03-29T14:20:11.563Z,0.28
2019-03-29T14:22:40.863Z,0.30
2019-03-29T14:25:10.272Z,0.57
2019-03-29T14:27:39.468Z,0.30
2019-03-29T14:30:09.695Z,0.35
2019-03-29T14:32:38.888Z,0.40
2019-03-29T14:35:08.834Z,0.40
2019-03-29T14:37:38.014Z,0.30
2019-03-29T14:40:08.539Z,0.95
2019-03-29T14:42:37.739Z,0.75
2019-03-29T14:45:08.893Z,0.50
2019-03-29T14:47:43.362Z,0.37
2019-03-29T14:50:09.847Z,0.35
2019-03-29T14:52:38.936Z,0.68
2019-03-29T14:55:08.039Z,0.50
2019-03-29T14:57:36.882Z,0.98
2019-03-29T15:00:08.402Z,0.30
2019-03-29T15:02:37.567Z,0.30
2019-03-29T15:05:08.063Z,0.40
2019-03-29T15:07:37.608Z,0.33
2019-03-29T15:10:09.366Z,0.20
2019-03-29T15:12:38.562Z,0.60
2019-03-29T15:15:07.975Z,0.95
2019-03-29T15:17:37.065Z,0.55
2019-03-29T15:20:07.691Z,0.30
2019-03-29T15:22:36.891Z,0.40
2019-03-29T15:25:06.404Z,0.17
2019-03-29T15:27:35.504Z,0.40
2019-03-29T15:30:06.967Z,0.45
2019-03-29T15:32:35.823Z,0.40
2019-03-29T15:35:05.529Z,0.65
2019-03-29T15:37:34.653Z,0.33
2019-03-29T15:40:03.892Z,0.47
2019-03-29T15:42:33.257Z,0.42
2019-03-29T15:45:02.356Z,0.20
2019-03-29T15:47:31.451Z,0.50
2019-03-29T15:50:00.656Z,0.88
2019-03-29T15:52:29.441Z,0.42
2019-03-29T15:54:58.259Z,0.35
2019-03-29T15:57:27.317Z,0.78
2019-03-29T15:59:56.033Z,0.30
2019-03-29T16:02:25.103Z,0.37
2019-03-29T16:04:53.813Z,0.55
2019-03-29T16:07:22.671Z,0.40
2019-03-29T16:09:51.445Z,0.50
2019-03-29T16:12:20.241Z,0.60
2019-03-29T16:14:49.358Z,0.30
2019-03-29T16:17:18.459Z,0.55
2019-03-29T16:19:47.286Z,0.50
2019-03-29T16:22:16.070Z,0.23
2019-03-29T16:24:45.135Z,0.53
2019-03-29T16:27:13.959Z,0.50
2019-03-29T16:29:42.676Z,0.70
2019-03-29T16:32:12.491Z,0.62
2019-03-29T16:34:41.515Z,0.33
2019-03-29T16:37:10.306Z,0.40
2019-03-29T16:39:39.065Z,0.60
2019-03-29T16:42:07.854Z,0.70
2019-03-29T16:44:36.879Z,0.30
2019-03-29T16:47:05.965Z,0.88
2019-03-29T16:49:34.791Z,0.70
2019-03-29T16:52:04.167Z,0.40
2019-03-29T16:54:33.144Z,0.50
2019-03-29T16:57:02.370Z,0.30
2019-03-29T16:59:31.083Z,0.40
2019-03-29T17:02:00.044Z,0.20
2019-03-29T17:04:29.245Z,0.40
2019-03-29T17:06:58.339Z,0.55
2019-03-29T17:09:27.137Z,0.42
2019-03-29T17:11:56.426Z,0.50
2019-03-29T17:14:25.218Z,0.37
2019-03-29T17:16:54.014Z,0.53
2019-03-29T17:19:22.847Z,0.35
2019-03-29T17:21:51.835Z,0.42
2019-03-29T18:14:26.657Z,1.57
2019-03-29T18:16:55.438Z,1.30
2019-03-29T18:19:24.566Z,1.50
2019-03-29T18:21:54.784Z,2.22
2019-03-29T18:24:23.878Z,1.55
2019-03-29T18:26:52.675Z,1.72
2019-03-29T18:29:21.499Z,1.90
2019-03-29T18:31:52.198Z,2.33
2019-03-29T18:34:21.299Z,1.47
2019-03-29T18:36:52.640Z,1.95
2019-03-29T18:39:22.764Z,1.20
2019-03-29T18:41:51.554Z,1.40
2019-03-29T18:44:20.382Z,1.65
2019-03-29T18:46:49.167Z,0.93
2019-03-29T18:49:18.334Z,1.00
2019-03-29T18:51:47.192Z,0.93
2019-03-29T18:54:15.958Z,0.95
2019-03-29T18:56:45.100Z,1.52
2019-03-29T18:59:13.919Z,1.95
2019-03-29T19:01:43.109Z,1.22
2019-03-29T19:04:11.932Z,1.25
2019-03-29T19:06:41.080Z,1.10
2019-03-29T19:09:09.875Z,1.47
2019-03-29T19:11:38.879Z,1.22
2019-03-29T19:14:07.599Z,1.67
2019-03-29T19:16:36.392Z,1.92
2019-03-29T19:19:10.360Z,2.00
2019-03-29T19:21:36.272Z,2.90
2019-03-29T19:24:05.372Z,2.87
2019-03-29T19:26:34.118Z,2.40
2019-03-29T19:29:03.255Z,4.85
2019-03-29T19:31:32.459Z,2.72
2019-03-29T19:34:01.277Z,3.00
2019-03-29T19:36:30.447Z,2.58
2019-03-29T19:38:59.643Z,2.37
2019-03-29T19:41:28.740Z,1.60
2019-03-29T19:43:57.528Z,2.25
2019-03-29T19:46:26.357Z,2.72
2019-03-29T19:48:55.152Z,3.25
2019-03-29T19:51:24.316Z,3.00
2019-03-29T19:54:06.403Z,3.72
2019-03-29T19:56:23.634Z,2.12
2019-03-29T19:58:52.739Z,1.75
2019-03-29T20:01:21.946Z,1.80
2019-03-29T20:03:51.129Z,2.47
2019-03-29T20:06:20.227Z,1.32
2019-03-29T20:08:49.013Z,1.70
2019-03-29T20:11:18.095Z,2.00
2019-03-29T20:13:47.217Z,1.65
2019-03-29T20:16:16.299Z,2.45
2019-03-29T20:18:45.509Z,2.42
2019-03-29T20:21:14.312Z,2.60
2019-03-29T20:23:43.404Z,2.83
2019-03-29T20:26:12.154Z,2.90
2019-03-29T20:28:41.257Z,2.52
2019-03-29T20:31:10.048Z,2.90
2019-03-29T20:33:38.906Z,1.98
2019-03-29T20:36:09.077Z,3.30
2019-03-29T20:38:38.187Z,2.92
2019-03-29T20:41:06.952Z,2.17
2019-03-29T20:43:35.733Z,2.25
2019-03-29T20:46:04.647Z,2.00
2019-03-29T20:48:33.466Z,2.30
2019-03-29T20:51:02.629Z,3.22
2019-03-29T20:53:31.732Z,2.50
2019-03-29T20:56:00.517Z,2.25
2019-03-29T20:58:29.709Z,2.20
2019-03-29T21:00:58.513Z,2.22
2019-03-29T21:03:27.358Z,2.40
2019-03-29T21:05:56.490Z,1.92
2019-03-29T21:08:25.688Z,3.40
2019-03-29T21:10:56.519Z,3.02
2019-03-29T21:13:25.241Z,1.67
2019-03-29T21:15:54.416Z,2.08
2019-03-29T21:18:23.126Z,1.67
2019-03-29T21:20:52.297Z,1.37
2019-03-29T21:23:21.499Z,2.00
2019-03-29T21:25:50.217Z,1.87
2019-03-29T21:28:18.948Z,1.50
2019-03-29T21:30:48.071Z,1.05
2019-03-29T21:33:16.860Z,1.30
2019-03-29T21:35:45.955Z,1.55
2019-03-29T21:38:15.152Z,1.65
2019-03-29T21:40:44.261Z,1.10
2019-03-29T21:43:13.038Z,1.00
2019-03-29T21:45:43.455Z,1.77
2019-03-29T21:48:28.691Z,1.42
2019-03-29T21:50:48.391Z,1.30
2019-03-29T21:53:29.607Z,1.20
2019-03-29T21:55:58.799Z,0.90
2019-03-29T21:58:33.158Z,1.02
2019-03-29T22:01:02.315Z,1.30
2019-03-29T22:03:31.410Z,1.22
2019-03-29T22:06:00.197Z,1.00
2019-03-29T22:08:29.020Z,1.05
2019-03-29T22:10:58.195Z,1.05
2019-03-29T22:13:26.934Z,1.80
2019-03-29T22:15:56.070Z,1.27
2019-03-29T22:18:37.380Z,0.95
2019-03-29T22:20:55.708Z,1.47
2019-03-29T22:23:24.933Z,1.75
2019-03-29T22:25:53.711Z,1.27
2019-03-29T22:28:22.786Z,1.07
2019-03-29T22:30:51.887Z,1.47
2019-03-29T22:33:20.976Z,1.30
2019-03-29T22:35:49.776Z,1.52
2019-03-29T22:38:18.589Z,1.05
2019-03-29T22:40:47.865Z,1.20
2019-03-29T22:43:17.267Z,1.15
2019-03-29T22:45:47.795Z,1.47
2019-03-29T22:48:16.614Z,1.62
2019-03-29T22:50:45.394Z,1.42
2019-03-29T22:53:14.200Z,1.45
2019-03-29T22:55:42.920Z,1.30
2019-03-29T22:58:11.705Z,2.40
2019-03-29T23:00:44.153Z,1.37
2019-03-29T23:03:13.313Z,1.80
2019-03-29T23:05:42.101Z,1.47
2019-03-29T23:08:10.923Z,1.55
2019-03-29T23:10:40.091Z,1.70
2019-03-29T23:13:09.185Z,2.00
2019-03-29T23:15:38.396Z,1.47
2019-03-29T23:18:07.478Z,1.47
2019-03-29T23:20:36.581Z,0.93
2019-03-29T23:23:05.788Z,1.45
2019-03-29T23:25:34.497Z,1.45
2019-03-29T23:28:03.299Z,1.10
2019-03-29T23:30:32.110Z,1.32
2019-03-29T23:33:01.237Z,1.35
2019-03-29T23:35:30.352Z,1.92
2019-03-29T23:38:02.393Z,1.47
2019-03-29T23:40:31.501Z,1.22
2019-03-29T23:43:02.130Z,1.70
2019-03-29T23:45:30.971Z,1.30
2019-03-29T23:48:00.134Z,1.95
2019-03-29T23:50:29.223Z,1.30
2019-03-29T23:52:58.308Z,1.80
2019-03-29T23:55:27.031Z,0.85
2019-03-29T23:57:56.112Z,1.35
